sensor_id;sensor_type;location;lat;lon;timestamp;P1;durP1;ratioP1;P2;durP2;ratioP2
64037;SDS011;54641;50.168;8.492;2023-02-10T00:00:54;73.60;;;24.10;;
64037;SDS011;54641;50.168;8.492;2023-02-10T00:03:26;61.80;;;23.50;;
64037;SDS011;54641;50.168;8.492;2023-02-10T00:05:59;44.10;;;18.30;;
64037;SDS011;54641;50.168;8.492;2023-02-10T00:08:31;40.80;;;17.70;;
64037;SDS011;54641;50.168;8.492;2023-02-10T00:11:03;41.60;;;17.50;;
64037;SDS011;54641;50.168;8.492;2023-02-10T00:13:38;38.20;;;16.20;;
64037;SDS011;54641;50.168;8.492;2023-02-10T00:16:11;35.70;;;15.00;;
64037;SDS011;54641;50.168;8.492;2023-02-10T00:18:44;34.50;;;14.00;;
64037;SDS011;54641;50.168;8.492;2023-02-10T00:21:17;33.30;;;13.90;;
64037;SDS011;54641;50.168;8.492;2023-02-10T00:23:49;35.00;;;15.00;;
64037;SDS011;54641;50.168;8.492;2023-02-10T00:26:22;36.60;;;16.00;;
64037;SDS011;54641;50.168;8.492;2023-02-10T00:28:54;34.80;;;15.90;;
64037;SDS011;54641;50.168;8.492;2023-02-10T00:31:27;37.60;;;15.50;;
64037;SDS011;54641;50.168;8.492;2023-02-10T00:41:26;43.20;;;18.40;;
64037;SDS011;54641;50.168;8.492;2023-02-10T00:43:56;29.20;;;13.20;;
64037;SDS011;54641;50.168;8.492;2023-02-10T00:46:27;28.40;;;12.80;;
64037;SDS011;54641;50.168;8.492;2023-02-10T00:48:58;34.80;;;13.50;;
64037;SDS011;54641;50.168;8.492;2023-02-10T00:51:28;31.50;;;13.20;;
64037;SDS011;54641;50.168;8.492;2023-02-10T00:54:00;32.90;;;15.10;;
64037;SDS011;54641;50.168;8.492;2023-02-10T00:56:30;33.10;;;15.20;;
64037;SDS011;54641;50.168;8.492;2023-02-10T00:59:01;36.90;;;15.10;;
64037;SDS011;54641;50.168;8.492;2023-02-10T01:01:31;37.90;;;16.80;;
64037;SDS011;54641;50.168;8.492;2023-02-10T01:04:01;33.40;;;15.50;;
64037;SDS011;54641;50.168;8.492;2023-02-10T01:06:32;38.40;;;17.70;;
64037;SDS011;54641;50.168;8.492;2023-02-10T01:09:04;58.70;;;19.30;;
64037;SDS011;54641;50.168;8.492;2023-02-10T01:11:35;59.20;;;20.20;;
64037;SDS011;54641;50.168;8.492;2023-02-10T01:14:05;35.60;;;16.80;;
64037;SDS011;54641;50.168;8.492;2023-02-10T01:16:36;37.60;;;14.30;;
64037;SDS011;54641;50.168;8.492;2023-02-10T01:19:08;33.70;;;13.60;;
64037;SDS011;54641;50.168;8.492;2023-02-10T01:21:40;32.30;;;14.90;;
64037;SDS011;54641;50.168;8.492;2023-02-10T01:24:11;35.80;;;15.90;;
64037;SDS011;54641;50.168;8.492;2023-02-10T01:26:41;27.50;;;12.30;;
64037;SDS011;54641;50.168;8.492;2023-02-10T01:29:12;36.60;;;15.10;;
64037;SDS011;54641;50.168;8.492;2023-02-10T01:31:43;37.50;;;16.50;;
64037;SDS011;54641;50.168;8.492;2023-02-10T01:34:13;34.10;;;13.90;;
64037;SDS011;54641;50.168;8.492;2023-02-10T01:36:43;33.50;;;13.20;;
64037;SDS011;54641;50.168;8.492;2023-02-10T01:39:14;30.10;;;13.00;;
64037;SDS011;54641;50.168;8.492;2023-02-10T01:41:45;32.90;;;12.80;;
64037;SDS011;54641;50.168;8.492;2023-02-10T01:47:21;62.80;;;20.90;;
64037;SDS011;54641;50.168;8.492;2023-02-10T01:49:55;58.00;;;19.70;;
64037;SDS011;54641;50.168;8.492;2023-02-10T01:52:26;36.90;;;16.20;;
64037;SDS011;54641;50.168;8.492;2023-02-10T01:54:59;28.30;;;13.30;;
64037;SDS011;54641;50.168;8.492;2023-02-10T01:57:31;38.90;;;16.00;;
64037;SDS011;54641;50.168;8.492;2023-02-10T02:00:03;36.10;;;16.70;;
64037;SDS011;54641;50.168;8.492;2023-02-10T02:02:40;41.20;;;17.30;;
64037;SDS011;54641;50.168;8.492;2023-02-10T02:05:19;31.40;;;14.10;;
64037;SDS011;54641;50.168;8.492;2023-02-10T02:07:55;37.20;;;15.60;;
64037;SDS011;54641;50.168;8.492;2023-02-10T02:10:31;50.30;;;18.10;;
64037;SDS011;54641;50.168;8.492;2023-02-10T02:13:09;41.00;;;17.50;;
64037;SDS011;54641;50.168;8.492;2023-02-10T02:15:46;38.20;;;16.60;;
64037;SDS011;54641;50.168;8.492;2023-02-10T02:18:23;45.30;;;17.30;;
64037;SDS011;54641;50.168;8.492;2023-02-10T02:24:20;43.40;;;18.70;;
64037;SDS011;54641;50.168;8.492;2023-02-10T02:27:13;40.90;;;17.20;;
64037;SDS011;54641;50.168;8.492;2023-02-10T02:29:58;36.90;;;17.40;;
64037;SDS011;54641;50.168;8.492;2023-02-10T02:32:47;35.90;;;16.00;;
64037;SDS011;54641;50.168;8.492;2023-02-10T02:35:19;37.00;;;16.80;;
64037;SDS011;54641;50.168;8.492;2023-02-10T02:37:54;37.00;;;17.40;;
64037;SDS011;54641;50.168;8.492;2023-02-10T02:40:24;36.40;;;16.80;;
64037;SDS011;54641;50.168;8.492;2023-02-10T02:42:55;38.70;;;16.90;;
64037;SDS011;54641;50.168;8.492;2023-02-10T02:45:26;37.60;;;17.00;;
64037;SDS011;54641;50.168;8.492;2023-02-10T02:48:09;58.90;;;21.10;;
64037;SDS011;54641;50.168;8.492;2023-02-10T02:50:48;40.80;;;16.90;;
64037;SDS011;54641;50.168;8.492;2023-02-10T02:53:27;44.20;;;18.60;;
64037;SDS011;54641;50.168;8.492;2023-02-10T02:56:03;36.10;;;16.10;;
64037;SDS011;54641;50.168;8.492;2023-02-10T02:58:39;48.50;;;20.30;;
64037;SDS011;54641;50.168;8.492;2023-02-10T03:01:18;58.80;;;21.30;;
64037;SDS011;54641;50.168;8.492;2023-02-10T03:03:53;51.80;;;21.60;;
64037;SDS011;54641;50.168;8.492;2023-02-10T03:06:25;38.70;;;17.20;;
64037;SDS011;54641;50.168;8.492;2023-02-10T03:08:55;39.70;;;17.50;;
64037;SDS011;54641;50.168;8.492;2023-02-10T03:11:26;38.00;;;17.10;;
64037;SDS011;54641;50.168;8.492;2023-02-10T03:13:57;41.00;;;17.90;;
64037;SDS011;54641;50.168;8.492;2023-02-10T03:16:27;29.20;;;13.70;;
64037;SDS011;54641;50.168;8.492;2023-02-10T03:18:57;40.70;;;18.40;;
64037;SDS011;54641;50.168;8.492;2023-02-10T03:21:28;31.40;;;14.00;;
64037;SDS011;54641;50.168;8.492;2023-02-10T03:23:58;38.90;;;17.80;;
64037;SDS011;54641;50.168;8.492;2023-02-10T03:26:29;33.80;;;16.30;;
64037;SDS011;54641;50.168;8.492;2023-02-10T03:29:00;33.00;;;14.90;;
64037;SDS011;54641;50.168;8.492;2023-02-10T03:31:31;32.80;;;14.90;;
64037;SDS011;54641;50.168;8.492;2023-02-10T03:34:01;40.70;;;16.60;;
64037;SDS011;54641;50.168;8.492;2023-02-10T03:36:32;63.30;;;21.10;;
64037;SDS011;54641;50.168;8.492;2023-02-10T03:39:03;61.50;;;23.00;;
64037;SDS011;54641;50.168;8.492;2023-02-10T03:41:34;42.80;;;19.00;;
64037;SDS011;54641;50.168;8.492;2023-02-10T03:44:04;44.10;;;18.30;;
64037;SDS011;54641;50.168;8.492;2023-02-10T03:46:35;39.60;;;17.20;;
64037;SDS011;54641;50.168;8.492;2023-02-10T03:49:05;45.10;;;18.50;;
64037;SDS011;54641;50.168;8.492;2023-02-10T03:51:36;39.30;;;15.70;;
64037;SDS011;54641;50.168;8.492;2023-02-10T03:54:06;31.60;;;14.30;;
64037;SDS011;54641;50.168;8.492;2023-02-10T03:56:36;37.10;;;16.60;;
64037;SDS011;54641;50.168;8.492;2023-02-10T03:59:07;36.10;;;16.50;;
64037;SDS011;54641;50.168;8.492;2023-02-10T04:01:37;39.90;;;17.20;;
64037;SDS011;54641;50.168;8.492;2023-02-10T04:04:08;42.20;;;19.00;;
64037;SDS011;54641;50.168;8.492;2023-02-10T04:06:39;46.60;;;20.10;;
64037;SDS011;54641;50.168;8.492;2023-02-10T04:09:09;62.60;;;24.00;;
64037;SDS011;54641;50.168;8.492;2023-02-10T04:11:40;60.90;;;23.90;;
64037;SDS011;54641;50.168;8.492;2023-02-10T04:14:10;43.10;;;19.90;;
64037;SDS011;54641;50.168;8.492;2023-02-10T04:16:41;44.10;;;19.50;;
64037;SDS011;54641;50.168;8.492;2023-02-10T04:19:11;47.00;;;19.90;;
64037;SDS011;54641;50.168;8.492;2023-02-10T04:21:42;43.30;;;19.30;;
64037;SDS011;54641;50.168;8.492;2023-02-10T04:24:12;43.20;;;19.10;;
64037;SDS011;54641;50.168;8.492;2023-02-10T04:26:43;47.90;;;20.40;;
64037;SDS011;54641;50.168;8.492;2023-02-10T04:29:13;45.70;;;19.50;;
64037;SDS011;54641;50.168;8.492;2023-02-10T04:31:44;41.90;;;18.80;;
64037;SDS011;54641;50.168;8.492;2023-02-10T04:34:15;40.10;;;18.00;;
64037;SDS011;54641;50.168;8.492;2023-02-10T04:36:45;45.40;;;19.40;;
64037;SDS011;54641;50.168;8.492;2023-02-10T04:39:15;42.40;;;18.80;;
64037;SDS011;54641;50.168;8.492;2023-02-10T04:41:46;45.50;;;19.70;;
64037;SDS011;54641;50.168;8.492;2023-02-10T04:44:16;55.70;;;22.80;;
64037;SDS011;54641;50.168;8.492;2023-02-10T04:46:47;42.40;;;19.00;;
64037;SDS011;54641;50.168;8.492;2023-02-10T04:49:18;43.90;;;19.40;;
64037;SDS011;54641;50.168;8.492;2023-02-10T04:51:49;44.80;;;19.80;;
64037;SDS011;54641;50.168;8.492;2023-02-10T04:54:19;42.50;;;19.40;;
64037;SDS011;54641;50.168;8.492;2023-02-10T04:56:51;43.00;;;19.20;;
64037;SDS011;54641;50.168;8.492;2023-02-10T04:59:21;49.70;;;20.60;;
64037;SDS011;54641;50.168;8.492;2023-02-10T05:01:51;50.10;;;25.00;;
64037;SDS011;54641;50.168;8.492;2023-02-10T05:04:22;54.70;;;24.30;;
64037;SDS011;54641;50.168;8.492;2023-02-10T05:06:52;43.80;;;19.90;;
64037;SDS011;54641;50.168;8.492;2023-02-10T05:09:26;40.60;;;19.50;;
64037;SDS011;54641;50.168;8.492;2023-02-10T05:11:56;40.90;;;17.60;;
64037;SDS011;54641;50.168;8.492;2023-02-10T05:14:27;45.70;;;18.90;;
64037;SDS011;54641;50.168;8.492;2023-02-10T05:16:58;64.00;;;25.20;;
64037;SDS011;54641;50.168;8.492;2023-02-10T05:19:28;50.60;;;22.90;;
64037;SDS011;54641;50.168;8.492;2023-02-10T05:21:59;53.70;;;23.50;;
64037;SDS011;54641;50.168;8.492;2023-02-10T05:24:29;49.10;;;22.40;;
64037;SDS011;54641;50.168;8.492;2023-02-10T05:26:59;47.70;;;20.80;;
64037;SDS011;54641;50.168;8.492;2023-02-10T05:29:30;46.20;;;22.40;;
64037;SDS011;54641;50.168;8.492;2023-02-10T05:32:01;46.40;;;20.50;;
64037;SDS011;54641;50.168;8.492;2023-02-10T05:34:31;47.90;;;22.10;;
64037;SDS011;54641;50.168;8.492;2023-02-10T05:37:02;43.70;;;20.30;;
64037;SDS011;54641;50.168;8.492;2023-02-10T05:39:32;41.50;;;17.80;;
64037;SDS011;54641;50.168;8.492;2023-02-10T05:42:03;55.80;;;22.50;;
64037;SDS011;54641;50.168;8.492;2023-02-10T05:44:33;59.00;;;24.00;;
64037;SDS011;54641;50.168;8.492;2023-02-10T05:47:04;58.40;;;25.00;;
64037;SDS011;54641;50.168;8.492;2023-02-10T05:49:34;47.70;;;22.40;;
64037;SDS011;54641;50.168;8.492;2023-02-10T05:52:04;63.40;;;25.00;;
64037;SDS011;54641;50.168;8.492;2023-02-10T05:54:35;51.10;;;22.80;;
64037;SDS011;54641;50.168;8.492;2023-02-10T05:57:07;62.60;;;24.90;;
64037;SDS011;54641;50.168;8.492;2023-02-10T05:59:38;50.00;;;22.10;;
64037;SDS011;54641;50.168;8.492;2023-02-10T06:02:09;48.90;;;22.20;;
64037;SDS011;54641;50.168;8.492;2023-02-10T06:04:40;49.50;;;23.00;;
64037;SDS011;54641;50.168;8.492;2023-02-10T06:07:10;49.20;;;22.70;;
64037;SDS011;54641;50.168;8.492;2023-02-10T06:09:41;52.10;;;22.70;;
64037;SDS011;54641;50.168;8.492;2023-02-10T06:14:43;48.30;;;21.90;;
64037;SDS011;54641;50.168;8.492;2023-02-10T06:17:13;50.20;;;19.50;;
64037;SDS011;54641;50.168;8.492;2023-02-10T06:19:44;62.30;;;26.40;;
64037;SDS011;54641;50.168;8.492;2023-02-10T06:22:14;59.50;;;26.30;;
64037;SDS011;54641;50.168;8.492;2023-02-10T06:24:45;51.10;;;23.40;;
64037;SDS011;54641;50.168;8.492;2023-02-10T06:27:15;47.10;;;22.30;;
64037;SDS011;54641;50.168;8.492;2023-02-10T06:29:46;49.60;;;23.50;;
64037;SDS011;54641;50.168;8.492;2023-02-10T06:32:16;51.80;;;22.00;;
64037;SDS011;54641;50.168;8.492;2023-02-10T06:34:47;57.20;;;23.90;;
64037;SDS011;54641;50.168;8.492;2023-02-10T06:37:17;52.30;;;23.50;;
64037;SDS011;54641;50.168;8.492;2023-02-10T06:39:48;46.80;;;22.10;;
64037;SDS011;54641;50.168;8.492;2023-02-10T06:42:18;57.30;;;23.60;;
64037;SDS011;54641;50.168;8.492;2023-02-10T06:44:50;74.40;;;27.50;;
64037;SDS011;54641;50.168;8.492;2023-02-10T06:47:20;68.00;;;27.20;;
64037;SDS011;54641;50.168;8.492;2023-02-10T06:49:51;55.50;;;24.10;;
64037;SDS011;54641;50.168;8.492;2023-02-10T06:52:21;49.70;;;22.00;;
64037;SDS011;54641;50.168;8.492;2023-02-10T06:54:54;52.60;;;23.10;;
64037;SDS011;54641;50.168;8.492;2023-02-10T06:57:24;54.70;;;23.40;;
64037;SDS011;54641;50.168;8.492;2023-02-10T06:59:54;52.30;;;21.90;;
64037;SDS011;54641;50.168;8.492;2023-02-10T07:02:26;55.20;;;21.00;;
64037;SDS011;54641;50.168;8.492;2023-02-10T07:04:57;59.60;;;22.10;;
64037;SDS011;54641;50.168;8.492;2023-02-10T07:07:27;81.80;;;28.90;;
64037;SDS011;54641;50.168;8.492;2023-02-10T07:09:58;105.00;;;32.80;;
64037;SDS011;54641;50.168;8.492;2023-02-10T07:12:28;79.70;;;31.90;;
64037;SDS011;54641;50.168;8.492;2023-02-10T07:14:59;55.30;;;24.80;;
64037;SDS011;54641;50.168;8.492;2023-02-10T07:17:29;46.40;;;21.10;;
64037;SDS011;54641;50.168;8.492;2023-02-10T07:20:00;48.50;;;21.60;;
64037;SDS011;54641;50.168;8.492;2023-02-10T07:22:30;54.10;;;22.70;;
64037;SDS011;54641;50.168;8.492;2023-02-10T07:25:01;57.90;;;22.40;;
64037;SDS011;54641;50.168;8.492;2023-02-10T07:27:32;53.20;;;23.10;;
64037;SDS011;54641;50.168;8.492;2023-02-10T07:30:03;58.80;;;25.90;;
64037;SDS011;54641;50.168;8.492;2023-02-10T07:32:34;70.70;;;28.00;;
64037;SDS011;54641;50.168;8.492;2023-02-10T07:35:05;74.40;;;28.60;;
64037;SDS011;54641;50.168;8.492;2023-02-10T07:37:36;66.80;;;26.20;;
64037;SDS011;54641;50.168;8.492;2023-02-10T07:40:07;55.60;;;23.80;;
64037;SDS011;54641;50.168;8.492;2023-02-10T07:42:39;57.30;;;24.60;;
64037;SDS011;54641;50.168;8.492;2023-02-10T07:45:24;55.10;;;22.50;;
64037;SDS011;54641;50.168;8.492;2023-02-10T07:47:58;54.70;;;23.60;;
64037;SDS011;54641;50.168;8.492;2023-02-10T07:50:29;52.00;;;22.20;;
64037;SDS011;54641;50.168;8.492;2023-02-10T07:53:01;52.60;;;21.10;;
64037;SDS011;54641;50.168;8.492;2023-02-10T07:55:32;79.50;;;27.70;;
64037;SDS011;54641;50.168;8.492;2023-02-10T07:58:04;89.60;;;29.10;;
64037;SDS011;54641;50.168;8.492;2023-02-10T08:00:35;74.60;;;27.00;;
64037;SDS011;54641;50.168;8.492;2023-02-10T08:03:06;52.40;;;22.10;;
64037;SDS011;54641;50.168;8.492;2023-02-10T08:05:37;55.80;;;21.30;;
64037;SDS011;54641;50.168;8.492;2023-02-10T08:08:09;55.00;;;20.40;;
64037;SDS011;54641;50.168;8.492;2023-02-10T08:10:41;48.70;;;20.50;;
64037;SDS011;54641;50.168;8.492;2023-02-10T08:13:11;50.30;;;20.00;;
64037;SDS011;54641;50.168;8.492;2023-02-10T08:15:42;51.90;;;20.10;;
64037;SDS011;54641;50.168;8.492;2023-02-10T08:18:12;50.80;;;19.60;;
64037;SDS011;54641;50.168;8.492;2023-02-10T08:20:43;55.80;;;19.70;;
64037;SDS011;54641;50.168;8.492;2023-02-10T08:23:14;50.00;;;19.60;;
64037;SDS011;54641;50.168;8.492;2023-02-10T08:25:45;51.90;;;20.80;;
64037;SDS011;54641;50.168;8.492;2023-02-10T08:28:18;47.70;;;22.20;;
64037;SDS011;54641;50.168;8.492;2023-02-10T08:30:48;51.50;;;20.10;;
64037;SDS011;54641;50.168;8.492;2023-02-10T08:33:19;43.70;;;20.00;;
64037;SDS011;54641;50.168;8.492;2023-02-10T08:35:50;48.10;;;20.80;;
64037;SDS011;54641;50.168;8.492;2023-02-10T08:38:20;44.80;;;19.90;;
64037;SDS011;54641;50.168;8.492;2023-02-10T08:40:55;51.90;;;22.10;;
64037;SDS011;54641;50.168;8.492;2023-02-10T08:43:26;47.10;;;19.50;;
64037;SDS011;54641;50.168;8.492;2023-02-10T08:45:56;52.90;;;23.10;;
64037;SDS011;54641;50.168;8.492;2023-02-10T08:48:27;48.40;;;20.40;;
64037;SDS011;54641;50.168;8.492;2023-02-10T08:50:59;48.30;;;21.40;;
64037;SDS011;54641;50.168;8.492;2023-02-10T08:53:33;47.80;;;20.70;;
64037;SDS011;54641;50.168;8.492;2023-02-10T08:56:05;50.80;;;20.10;;
64037;SDS011;54641;50.168;8.492;2023-02-10T08:58:37;44.80;;;20.10;;
64037;SDS011;54641;50.168;8.492;2023-02-10T09:01:11;45.40;;;20.20;;
64037;SDS011;54641;50.168;8.492;2023-02-10T09:03:43;34.00;;;14.70;;
64037;SDS011;54641;50.168;8.492;2023-02-10T09:06:15;38.50;;;20.60;;
64037;SDS011;54641;50.168;8.492;2023-02-10T09:11:16;44.00;;;19.70;;
64037;SDS011;54641;50.168;8.492;2023-02-10T09:13:47;58.60;;;28.70;;
64037;SDS011;54641;50.168;8.492;2023-02-10T09:16:17;55.10;;;29.10;;
64037;SDS011;54641;50.168;8.492;2023-02-10T09:18:48;90.80;;;54.90;;
64037;SDS011;54641;50.168;8.492;2023-02-10T09:21:18;87.40;;;52.50;;
64037;SDS011;54641;50.168;8.492;2023-02-10T09:23:49;54.90;;;28.90;;
64037;SDS011;54641;50.168;8.492;2023-02-10T09:26:19;50.40;;;25.30;;
64037;SDS011;54641;50.168;8.492;2023-02-10T09:28:49;47.70;;;25.30;;
64037;SDS011;54641;50.168;8.492;2023-02-10T09:31:20;45.70;;;24.70;;
64037;SDS011;54641;50.168;8.492;2023-02-10T09:33:51;42.30;;;22.70;;
64037;SDS011;54641;50.168;8.492;2023-02-10T09:36:21;45.20;;;22.60;;
64037;SDS011;54641;50.168;8.492;2023-02-10T09:38:51;47.20;;;23.60;;
64037;SDS011;54641;50.168;8.492;2023-02-10T09:41:27;51.90;;;25.20;;
64037;SDS011;54641;50.168;8.492;2023-02-10T09:44:06;46.30;;;24.70;;
64037;SDS011;54641;50.168;8.492;2023-02-10T09:46:46;36.90;;;19.40;;
64037;SDS011;54641;50.168;8.492;2023-02-10T09:49:26;46.60;;;24.30;;
64037;SDS011;54641;50.168;8.492;2023-02-10T09:52:06;41.50;;;23.20;;
64037;SDS011;54641;50.168;8.492;2023-02-10T09:54:44;43.20;;;20.50;;
64037;SDS011;54641;50.168;8.492;2023-02-10T09:57:15;42.70;;;22.40;;
64037;SDS011;54641;50.168;8.492;2023-02-10T09:59:47;47.50;;;24.30;;
64037;SDS011;54641;50.168;8.492;2023-02-10T10:02:21;43.10;;;23.30;;
64037;SDS011;54641;50.168;8.492;2023-02-10T10:04:55;41.10;;;22.10;;
64037;SDS011;54641;50.168;8.492;2023-02-10T10:07:28;47.90;;;23.30;;
64037;SDS011;54641;50.168;8.492;2023-02-10T10:10:04;48.70;;;23.80;;
64037;SDS011;54641;50.168;8.492;2023-02-10T10:12:38;46.30;;;24.70;;
64037;SDS011;54641;50.168;8.492;2023-02-10T10:15:13;47.10;;;25.10;;
64037;SDS011;54641;50.168;8.492;2023-02-10T10:17:48;46.50;;;25.50;;
64037;SDS011;54641;50.168;8.492;2023-02-10T10:20:31;43.60;;;24.10;;
64037;SDS011;54641;50.168;8.492;2023-02-10T10:23:15;42.70;;;22.30;;
64037;SDS011;54641;50.168;8.492;2023-02-10T10:25:57;46.90;;;24.80;;
64037;SDS011;54641;50.168;8.492;2023-02-10T10:28:36;48.90;;;23.60;;
64037;SDS011;54641;50.168;8.492;2023-02-10T10:31:14;45.70;;;24.00;;
64037;SDS011;54641;50.168;8.492;2023-02-10T10:33:48;43.00;;;22.00;;
64037;SDS011;54641;50.168;8.492;2023-02-10T10:36:20;40.70;;;21.40;;
64037;SDS011;54641;50.168;8.492;2023-02-10T10:38:53;44.50;;;24.60;;
64037;SDS011;54641;50.168;8.492;2023-02-10T10:41:30;39.80;;;19.00;;
64037;SDS011;54641;50.168;8.492;2023-02-10T10:44:01;41.60;;;22.40;;
64037;SDS011;54641;50.168;8.492;2023-02-10T10:46:33;42.70;;;23.30;;
64037;SDS011;54641;50.168;8.492;2023-02-10T10:49:07;46.00;;;23.70;;
64037;SDS011;54641;50.168;8.492;2023-02-10T10:51:38;42.80;;;22.30;;
64037;SDS011;54641;50.168;8.492;2023-02-10T10:54:12;34.10;;;17.30;;
64037;SDS011;54641;50.168;8.492;2023-02-10T10:56:46;47.70;;;24.30;;
64037;SDS011;54641;50.168;8.492;2023-02-10T10:59:19;41.50;;;22.40;;
64037;SDS011;54641;50.168;8.492;2023-02-10T11:01:54;47.10;;;26.00;;
64037;SDS011;54641;50.168;8.492;2023-02-10T11:04:26;46.00;;;23.80;;
64037;SDS011;54641;50.168;8.492;2023-02-10T11:06:56;53.60;;;24.10;;
64037;SDS011;54641;50.168;8.492;2023-02-10T11:09:29;46.80;;;24.80;;
64037;SDS011;54641;50.168;8.492;2023-02-10T11:12:02;52.60;;;24.30;;
64037;SDS011;54641;50.168;8.492;2023-02-10T11:14:37;38.60;;;22.00;;
64037;SDS011;54641;50.168;8.492;2023-02-10T11:17:18;50.10;;;26.80;;
64037;SDS011;54641;50.168;8.492;2023-02-10T11:19:57;48.90;;;26.40;;
64037;SDS011;54641;50.168;8.492;2023-02-10T11:22:28;46.00;;;25.30;;
64037;SDS011;54641;50.168;8.492;2023-02-10T11:24:59;42.50;;;22.40;;
64037;SDS011;54641;50.168;8.492;2023-02-10T11:27:33;50.80;;;26.50;;
64037;SDS011;54641;50.168;8.492;2023-02-10T11:30:04;43.30;;;21.90;;
64037;SDS011;54641;50.168;8.492;2023-02-10T11:32:51;50.60;;;26.60;;
64037;SDS011;54641;50.168;8.492;2023-02-10T11:35:22;52.60;;;26.80;;
64037;SDS011;54641;50.168;8.492;2023-02-10T11:37:54;47.30;;;26.70;;
64037;SDS011;54641;50.168;8.492;2023-02-10T11:40:27;40.20;;;21.90;;
64037;SDS011;54641;50.168;8.492;2023-02-10T11:43:00;48.60;;;25.70;;
64037;SDS011;54641;50.168;8.492;2023-02-10T11:45:31;47.60;;;24.20;;
64037;SDS011;54641;50.168;8.492;2023-02-10T11:48:03;40.90;;;21.90;;
64037;SDS011;54641;50.168;8.492;2023-02-10T11:50:39;41.10;;;21.90;;
64037;SDS011;54641;50.168;8.492;2023-02-10T11:53:10;46.00;;;24.70;;
64037;SDS011;54641;50.168;8.492;2023-02-10T11:55:51;44.70;;;24.60;;
64037;SDS011;54641;50.168;8.492;2023-02-10T11:58:31;40.90;;;21.80;;
64037;SDS011;54641;50.168;8.492;2023-02-10T12:01:37;47.50;;;26.00;;
64037;SDS011;54641;50.168;8.492;2023-02-10T12:04:22;49.20;;;27.50;;
64037;SDS011;54641;50.168;8.492;2023-02-10T12:07:10;47.70;;;26.70;;
64037;SDS011;54641;50.168;8.492;2023-02-10T12:09:48;44.30;;;24.50;;
64037;SDS011;54641;50.168;8.492;2023-02-10T12:12:25;50.60;;;28.00;;
64037;SDS011;54641;50.168;8.492;2023-02-10T12:15:03;45.70;;;24.90;;
64037;SDS011;54641;50.168;8.492;2023-02-10T12:17:45;40.20;;;22.00;;
64037;SDS011;54641;50.168;8.492;2023-02-10T12:20:24;44.30;;;25.00;;
64037;SDS011;54641;50.168;8.492;2023-02-10T12:23:10;45.80;;;26.80;;
64037;SDS011;54641;50.168;8.492;2023-02-10T12:25:54;46.70;;;25.40;;
64037;SDS011;54641;50.168;8.492;2023-02-10T12:28:31;46.60;;;27.00;;
64037;SDS011;54641;50.168;8.492;2023-02-10T12:31:13;48.20;;;27.30;;
64037;SDS011;54641;50.168;8.492;2023-02-10T12:33:55;44.30;;;25.40;;
64037;SDS011;54641;50.168;8.492;2023-02-10T12:36:36;40.30;;;23.00;;
64037;SDS011;54641;50.168;8.492;2023-02-10T12:39:12;45.00;;;23.40;;
64037;SDS011;54641;50.168;8.492;2023-02-10T12:41:50;46.90;;;26.90;;
64037;SDS011;54641;50.168;8.492;2023-02-10T12:44:40;45.80;;;26.40;;
64037;SDS011;54641;50.168;8.492;2023-02-10T12:47:19;47.60;;;26.70;;
64037;SDS011;54641;50.168;8.492;2023-02-10T12:49:58;47.30;;;28.70;;
64037;SDS011;54641;50.168;8.492;2023-02-10T12:52:36;43.60;;;24.50;;
64037;SDS011;54641;50.168;8.492;2023-02-10T12:55:13;51.80;;;28.60;;
64037;SDS011;54641;50.168;8.492;2023-02-10T12:57:46;39.70;;;24.10;;
64037;SDS011;54641;50.168;8.492;2023-02-10T13:00:19;45.60;;;28.50;;
64037;SDS011;54641;50.168;8.492;2023-02-10T13:02:54;46.90;;;29.90;;
64037;SDS011;54641;50.168;8.492;2023-02-10T13:05:28;44.00;;;28.80;;
64037;SDS011;54641;50.168;8.492;2023-02-10T13:08:01;42.10;;;29.50;;
64037;SDS011;54641;50.168;8.492;2023-02-10T13:10:33;44.40;;;30.20;;
64037;SDS011;54641;50.168;8.492;2023-02-10T13:13:09;41.20;;;28.30;;
64037;SDS011;54641;50.168;8.492;2023-02-10T13:15:52;39.70;;;29.00;;
64037;SDS011;54641;50.168;8.492;2023-02-10T13:18:26;39.20;;;28.20;;
64037;SDS011;54641;50.168;8.492;2023-02-10T13:21:00;37.70;;;27.30;;
64037;SDS011;54641;50.168;8.492;2023-02-10T13:23:36;35.20;;;26.10;;
64037;SDS011;54641;50.168;8.492;2023-02-10T13:26:22;37.60;;;26.70;;
64037;SDS011;54641;50.168;8.492;2023-02-10T13:29:04;39.30;;;25.70;;
64037;SDS011;54641;50.168;8.492;2023-02-10T13:31:59;35.50;;;25.40;;
64037;SDS011;54641;50.168;8.492;2023-02-10T13:34:47;35.00;;;22.80;;
64037;SDS011;54641;50.168;8.492;2023-02-10T13:37:21;37.40;;;24.10;;
64037;SDS011;54641;50.168;8.492;2023-02-10T13:39:57;36.10;;;24.40;;
64037;SDS011;54641;50.168;8.492;2023-02-10T13:42:31;36.30;;;24.20;;
64037;SDS011;54641;50.168;8.492;2023-02-10T13:45:05;37.00;;;22.70;;
64037;SDS011;54641;50.168;8.492;2023-02-10T13:47:48;39.40;;;20.60;;
64037;SDS011;54641;50.168;8.492;2023-02-10T13:50:21;36.60;;;22.50;;
64037;SDS011;54641;50.168;8.492;2023-02-10T13:52:59;38.00;;;24.90;;
64037;SDS011;54641;50.168;8.492;2023-02-10T13:55:41;39.30;;;23.80;;
64037;SDS011;54641;50.168;8.492;2023-02-10T13:58:23;40.30;;;23.70;;
64037;SDS011;54641;50.168;8.492;2023-02-10T14:00:56;40.10;;;24.60;;
64037;SDS011;54641;50.168;8.492;2023-02-10T14:03:27;33.80;;;20.30;;
64037;SDS011;54641;50.168;8.492;2023-02-10T14:05:59;45.80;;;28.30;;
64037;SDS011;54641;50.168;8.492;2023-02-10T14:08:33;41.90;;;26.80;;
64037;SDS011;54641;50.168;8.492;2023-02-10T14:11:27;44.10;;;25.80;;
64037;SDS011;54641;50.168;8.492;2023-02-10T14:16:30;47.50;;;28.00;;
64037;SDS011;54641;50.168;8.492;2023-02-10T14:19:05;39.70;;;22.90;;
64037;SDS011;54641;50.168;8.492;2023-02-10T14:21:48;44.70;;;25.50;;
64037;SDS011;54641;50.168;8.492;2023-02-10T14:24:21;45.60;;;26.30;;
64037;SDS011;54641;50.168;8.492;2023-02-10T14:27:02;49.80;;;27.20;;
64037;SDS011;54641;50.168;8.492;2023-02-10T14:29:33;46.20;;;24.60;;
64037;SDS011;54641;50.168;8.492;2023-02-10T14:32:05;45.70;;;26.00;;
64037;SDS011;54641;50.168;8.492;2023-02-10T14:34:36;47.30;;;26.00;;
64037;SDS011;54641;50.168;8.492;2023-02-10T14:37:18;45.30;;;25.50;;
64037;SDS011;54641;50.168;8.492;2023-02-10T14:39:50;47.90;;;25.30;;
64037;SDS011;54641;50.168;8.492;2023-02-10T14:42:22;46.10;;;25.90;;
64037;SDS011;54641;50.168;8.492;2023-02-10T14:44:55;46.70;;;25.20;;
64037;SDS011;54641;50.168;8.492;2023-02-10T14:47:28;46.10;;;23.60;;
64037;SDS011;54641;50.168;8.492;2023-02-10T14:50:02;38.50;;;23.40;;
64037;SDS011;54641;50.168;8.492;2023-02-10T14:52:34;42.60;;;24.80;;
64037;SDS011;54641;50.168;8.492;2023-02-10T14:57:57;48.50;;;24.70;;
64037;SDS011;54641;50.168;8.492;2023-02-10T15:00:32;41.30;;;23.10;;
64037;SDS011;54641;50.168;8.492;2023-02-10T15:03:03;35.90;;;19.80;;
64037;SDS011;54641;50.168;8.492;2023-02-10T15:05:34;42.30;;;23.80;;
64037;SDS011;54641;50.168;8.492;2023-02-10T15:08:08;45.60;;;25.50;;
64037;SDS011;54641;50.168;8.492;2023-02-10T15:10:43;40.90;;;22.80;;
64037;SDS011;54641;50.168;8.492;2023-02-10T15:13:19;45.70;;;25.20;;
64037;SDS011;54641;50.168;8.492;2023-02-10T15:15:53;44.00;;;25.00;;
64037;SDS011;54641;50.168;8.492;2023-02-10T15:18:24;44.30;;;24.80;;
64037;SDS011;54641;50.168;8.492;2023-02-10T15:20:56;47.70;;;25.90;;